sensor_id;sensor_type;location;lat;lon;timestamp;P1;durP1;ratioP1;P2;durP2;ratioP2
20776;SDS011;10548;47.504;8.248;2022-08-19T00:01:52;34.83;;;28.90;;
20776;SDS011;10548;47.504;8.248;2022-08-19T00:04:22;35.20;;;26.33;;
20776;SDS011;10548;47.504;8.248;2022-08-19T00:06:51;44.40;;;30.63;;
20776;SDS011;10548;47.504;8.248;2022-08-19T00:09:19;51.43;;;33.63;;
20776;SDS011;10548;47.504;8.248;2022-08-19T00:11:47;42.03;;;30.67;;
20776;SDS011;10548;47.504;8.248;2022-08-19T00:14:15;37.97;;;28.57;;
20776;SDS011;10548;47.504;8.248;2022-08-19T00:16:44;38.27;;;29.07;;
20776;SDS011;10548;47.504;8.248;2022-08-19T00:19:12;35.60;;;27.27;;
20776;SDS011;10548;47.504;8.248;2022-08-19T00:21:40;39.83;;;29.03;;
20776;SDS011;10548;47.504;8.248;2022-08-19T00:24:08;33.87;;;25.50;;
20776;SDS011;10548;47.504;8.248;2022-08-19T00:26:37;41.03;;;29.23;;
20776;SDS011;10548;47.504;8.248;2022-08-19T00:29:05;36.87;;;28.20;;
20776;SDS011;10548;47.504;8.248;2022-08-19T00:31:33;38.93;;;29.67;;
20776;SDS011;10548;47.504;8.248;2022-08-19T00:34:00;33.70;;;27.77;;
20776;SDS011;10548;47.504;8.248;2022-08-19T00:36:28;38.03;;;29.03;;
20776;SDS011;10548;47.504;8.248;2022-08-19T00:38:55;42.87;;;31.40;;
20776;SDS011;10548;47.504;8.248;2022-08-19T00:41:23;37.80;;;27.93;;
20776;SDS011;10548;47.504;8.248;2022-08-19T00:43:58;36.00;;;28.80;;
20776;SDS011;10548;47.504;8.248;2022-08-19T00:46:34;36.43;;;28.43;;
20776;SDS011;10548;47.504;8.248;2022-08-19T00:49:10;43.07;;;31.43;;
20776;SDS011;10548;47.504;8.248;2022-08-19T00:51:45;42.83;;;30.53;;
20776;SDS011;10548;47.504;8.248;2022-08-19T00:54:16;38.20;;;28.23;;
20776;SDS011;10548;47.504;8.248;2022-08-19T00:56:43;40.07;;;30.60;;
20776;SDS011;10548;47.504;8.248;2022-08-19T00:59:12;44.83;;;31.80;;
20776;SDS011;10548;47.504;8.248;2022-08-19T01:02:01;39.30;;;29.83;;
20776;SDS011;10548;47.504;8.248;2022-08-19T01:04:29;40.63;;;30.40;;
20776;SDS011;10548;47.504;8.248;2022-08-19T01:06:56;43.47;;;29.43;;
20776;SDS011;10548;47.504;8.248;2022-08-19T01:09:25;35.27;;;28.80;;
20776;SDS011;10548;47.504;8.248;2022-08-19T01:11:53;42.47;;;31.13;;
20776;SDS011;10548;47.504;8.248;2022-08-19T01:14:20;41.47;;;31.10;;
20776;SDS011;10548;47.504;8.248;2022-08-19T01:16:47;43.57;;;32.27;;
20776;SDS011;10548;47.504;8.248;2022-08-19T01:19:17;46.63;;;31.67;;
20776;SDS011;10548;47.504;8.248;2022-08-19T01:22:01;44.43;;;31.97;;
20776;SDS011;10548;47.504;8.248;2022-08-19T01:24:42;44.73;;;30.70;;
20776;SDS011;10548;47.504;8.248;2022-08-19T01:27:15;39.03;;;29.13;;
20776;SDS011;10548;47.504;8.248;2022-08-19T01:29:43;45.10;;;32.03;;
20776;SDS011;10548;47.504;8.248;2022-08-19T01:32:12;40.50;;;29.60;;
20776;SDS011;10548;47.504;8.248;2022-08-19T01:34:59;42.17;;;30.07;;
20776;SDS011;10548;47.504;8.248;2022-08-19T01:37:29;41.77;;;31.03;;
20776;SDS011;10548;47.504;8.248;2022-08-19T01:40:08;43.13;;;30.97;;
20776;SDS011;10548;47.504;8.248;2022-08-19T01:42:36;39.70;;;30.70;;
20776;SDS011;10548;47.504;8.248;2022-08-19T01:45:04;41.03;;;28.53;;
20776;SDS011;10548;47.504;8.248;2022-08-19T01:47:33;37.10;;;28.67;;
20776;SDS011;10548;47.504;8.248;2022-08-19T01:50:03;37.20;;;29.37;;
20776;SDS011;10548;47.504;8.248;2022-08-19T01:52:31;36.30;;;28.73;;
20776;SDS011;10548;47.504;8.248;2022-08-19T01:54:58;44.37;;;32.00;;
20776;SDS011;10548;47.504;8.248;2022-08-19T01:57:25;50.03;;;33.40;;
20776;SDS011;10548;47.504;8.248;2022-08-19T01:59:53;44.77;;;32.20;;
20776;SDS011;10548;47.504;8.248;2022-08-19T02:02:20;46.67;;;33.53;;
20776;SDS011;10548;47.504;8.248;2022-08-19T02:04:47;41.83;;;30.53;;
20776;SDS011;10548;47.504;8.248;2022-08-19T02:07:14;66.07;;;37.17;;
20776;SDS011;10548;47.504;8.248;2022-08-19T02:09:41;49.37;;;34.77;;
20776;SDS011;10548;47.504;8.248;2022-08-19T02:12:08;68.13;;;38.30;;
20776;SDS011;10548;47.504;8.248;2022-08-19T02:14:36;65.50;;;40.07;;
20776;SDS011;10548;47.504;8.248;2022-08-19T02:17:03;48.80;;;33.87;;
20776;SDS011;10548;47.504;8.248;2022-08-19T02:19:30;49.57;;;32.33;;
20776;SDS011;10548;47.504;8.248;2022-08-19T02:21:59;49.37;;;35.90;;
20776;SDS011;10548;47.504;8.248;2022-08-19T02:24:27;57.13;;;35.33;;
20776;SDS011;10548;47.504;8.248;2022-08-19T02:26:54;54.03;;;35.83;;
20776;SDS011;10548;47.504;8.248;2022-08-19T02:29:21;47.90;;;34.57;;
20776;SDS011;10548;47.504;8.248;2022-08-19T02:31:48;51.63;;;35.17;;
20776;SDS011;10548;47.504;8.248;2022-08-19T02:34:16;75.37;;;41.60;;
20776;SDS011;10548;47.504;8.248;2022-08-19T02:36:43;57.70;;;37.33;;
20776;SDS011;10548;47.504;8.248;2022-08-19T02:39:17;51.30;;;35.20;;
20776;SDS011;10548;47.504;8.248;2022-08-19T02:41:44;49.20;;;34.97;;
20776;SDS011;10548;47.504;8.248;2022-08-19T02:44:12;61.80;;;36.87;;
20776;SDS011;10548;47.504;8.248;2022-08-19T02:46:56;50.53;;;33.03;;
20776;SDS011;10548;47.504;8.248;2022-08-19T02:49:23;48.37;;;31.37;;
20776;SDS011;10548;47.504;8.248;2022-08-19T02:51:50;47.87;;;30.93;;
20776;SDS011;10548;47.504;8.248;2022-08-19T02:54:17;56.47;;;38.30;;
20776;SDS011;10548;47.504;8.248;2022-08-19T02:56:45;47.93;;;33.83;;
20776;SDS011;10548;47.504;8.248;2022-08-19T02:59:12;47.33;;;33.53;;
20776;SDS011;10548;47.504;8.248;2022-08-19T03:01:40;48.57;;;33.77;;
20776;SDS011;10548;47.504;8.248;2022-08-19T03:04:10;50.00;;;34.60;;
20776;SDS011;10548;47.504;8.248;2022-08-19T03:06:43;48.30;;;33.63;;
20776;SDS011;10548;47.504;8.248;2022-08-19T03:09:12;50.47;;;35.17;;
20776;SDS011;10548;47.504;8.248;2022-08-19T03:11:39;37.23;;;29.00;;
20776;SDS011;10548;47.504;8.248;2022-08-19T03:14:08;44.97;;;31.97;;
20776;SDS011;10548;47.504;8.248;2022-08-19T03:16:41;54.27;;;35.70;;
20776;SDS011;10548;47.504;8.248;2022-08-19T03:19:09;53.60;;;35.83;;
20776;SDS011;10548;47.504;8.248;2022-08-19T03:21:37;77.83;;;41.97;;
20776;SDS011;10548;47.504;8.248;2022-08-19T03:24:05;72.80;;;43.23;;
20776;SDS011;10548;47.504;8.248;2022-08-19T03:26:37;68.00;;;41.40;;
20776;SDS011;10548;47.504;8.248;2022-08-19T03:29:06;56.20;;;37.90;;
20776;SDS011;10548;47.504;8.248;2022-08-19T03:31:37;66.40;;;39.80;;
20776;SDS011;10548;47.504;8.248;2022-08-19T03:34:11;63.50;;;39.80;;
20776;SDS011;10548;47.504;8.248;2022-08-19T03:36:40;52.30;;;35.47;;
20776;SDS011;10548;47.504;8.248;2022-08-19T03:39:07;78.40;;;45.03;;
20776;SDS011;10548;47.504;8.248;2022-08-19T03:41:37;52.40;;;35.83;;
20776;SDS011;10548;47.504;8.248;2022-08-19T03:44:12;55.80;;;36.70;;
20776;SDS011;10548;47.504;8.248;2022-08-19T03:46:47;53.93;;;36.63;;
20776;SDS011;10548;47.504;8.248;2022-08-19T03:49:16;56.53;;;35.40;;
20776;SDS011;10548;47.504;8.248;2022-08-19T03:51:45;45.97;;;30.47;;
20776;SDS011;10548;47.504;8.248;2022-08-19T03:54:14;28.20;;;21.37;;
20776;SDS011;10548;47.504;8.248;2022-08-19T03:56:43;20.97;;;14.83;;
20776;SDS011;10548;47.504;8.248;2022-08-19T03:59:13;23.60;;;18.90;;
20776;SDS011;10548;47.504;8.248;2022-08-19T04:01:43;24.90;;;19.30;;
20776;SDS011;10548;47.504;8.248;2022-08-19T04:04:10;21.27;;;17.10;;
20776;SDS011;10548;47.504;8.248;2022-08-19T04:06:37;24.37;;;19.00;;
20776;SDS011;10548;47.504;8.248;2022-08-19T04:09:07;16.87;;;15.00;;
20776;SDS011;10548;47.504;8.248;2022-08-19T04:11:38;22.20;;;16.00;;
20776;SDS011;10548;47.504;8.248;2022-08-19T04:14:12;20.43;;;15.67;;
20776;SDS011;10548;47.504;8.248;2022-08-19T04:16:41;16.50;;;13.63;;
20776;SDS011;10548;47.504;8.248;2022-08-19T04:19:14;16.37;;;12.97;;
20776;SDS011;10548;47.504;8.248;2022-08-19T04:21:43;15.50;;;12.97;;
20776;SDS011;10548;47.504;8.248;2022-08-19T04:24:11;21.80;;;15.83;;
20776;SDS011;10548;47.504;8.248;2022-08-19T04:26:39;19.57;;;16.33;;
20776;SDS011;10548;47.504;8.248;2022-08-19T04:29:07;19.97;;;16.50;;
20776;SDS011;10548;47.504;8.248;2022-08-19T04:31:38;22.53;;;18.33;;
20776;SDS011;10548;47.504;8.248;2022-08-19T04:34:08;29.83;;;21.03;;
20776;SDS011;10548;47.504;8.248;2022-08-19T04:36:40;29.13;;;21.83;;
20776;SDS011;10548;47.504;8.248;2022-08-19T04:39:09;35.00;;;25.53;;
20776;SDS011;10548;47.504;8.248;2022-08-19T04:41:45;31.67;;;22.73;;
20776;SDS011;10548;47.504;8.248;2022-08-19T04:44:32;36.53;;;23.97;;
20776;SDS011;10548;47.504;8.248;2022-08-19T04:47:04;28.67;;;19.80;;
20776;SDS011;10548;47.504;8.248;2022-08-19T04:49:36;22.73;;;19.67;;
20776;SDS011;10548;47.504;8.248;2022-08-19T04:52:04;20.37;;;17.67;;
20776;SDS011;10548;47.504;8.248;2022-08-19T04:54:31;19.70;;;17.20;;
20776;SDS011;10548;47.504;8.248;2022-08-19T04:57:05;22.53;;;17.17;;
20776;SDS011;10548;47.504;8.248;2022-08-19T04:59:37;26.10;;;19.23;;
20776;SDS011;10548;47.504;8.248;2022-08-19T05:02:06;22.73;;;18.73;;
20776;SDS011;10548;47.504;8.248;2022-08-19T05:04:34;25.63;;;20.87;;
20776;SDS011;10548;47.504;8.248;2022-08-19T05:07:06;30.03;;;21.23;;
20776;SDS011;10548;47.504;8.248;2022-08-19T05:09:34;26.13;;;21.70;;
20776;SDS011;10548;47.504;8.248;2022-08-19T05:12:21;17.77;;;15.87;;
20776;SDS011;10548;47.504;8.248;2022-08-19T05:14:55;22.87;;;18.90;;
20776;SDS011;10548;47.504;8.248;2022-08-19T05:17:23;19.63;;;17.53;;
20776;SDS011;10548;47.504;8.248;2022-08-19T05:19:55;20.53;;;18.20;;
20776;SDS011;10548;47.504;8.248;2022-08-19T05:22:42;20.13;;;17.67;;
20776;SDS011;10548;47.504;8.248;2022-08-19T05:25:12;22.90;;;19.70;;
20776;SDS011;10548;47.504;8.248;2022-08-19T05:27:45;26.00;;;20.87;;
20776;SDS011;10548;47.504;8.248;2022-08-19T05:30:13;25.57;;;19.27;;
20776;SDS011;10548;47.504;8.248;2022-08-19T05:32:41;16.80;;;15.03;;
20776;SDS011;10548;47.504;8.248;2022-08-19T05:35:08;16.77;;;14.33;;
20776;SDS011;10548;47.504;8.248;2022-08-19T05:37:36;18.07;;;16.27;;
20776;SDS011;10548;47.504;8.248;2022-08-19T05:40:05;17.30;;;14.30;;
20776;SDS011;10548;47.504;8.248;2022-08-19T05:42:32;18.03;;;14.97;;
20776;SDS011;10548;47.504;8.248;2022-08-19T05:44:59;16.67;;;14.90;;
20776;SDS011;10548;47.504;8.248;2022-08-19T05:47:27;20.47;;;16.53;;
20776;SDS011;10548;47.504;8.248;2022-08-19T05:49:54;18.17;;;14.90;;
20776;SDS011;10548;47.504;8.248;2022-08-19T05:52:21;19.33;;;14.90;;
20776;SDS011;10548;47.504;8.248;2022-08-19T05:54:52;16.70;;;14.63;;
20776;SDS011;10548;47.504;8.248;2022-08-19T05:57:21;15.67;;;14.17;;
20776;SDS011;10548;47.504;8.248;2022-08-19T05:59:49;13.83;;;12.43;;
20776;SDS011;10548;47.504;8.248;2022-08-19T06:02:24;13.60;;;12.30;;
20776;SDS011;10548;47.504;8.248;2022-08-19T06:04:55;14.50;;;13.03;;
20776;SDS011;10548;47.504;8.248;2022-08-19T06:07:22;13.40;;;12.00;;
20776;SDS011;10548;47.504;8.248;2022-08-19T06:09:49;13.33;;;12.03;;
20776;SDS011;10548;47.504;8.248;2022-08-19T06:12:30;16.37;;;14.20;;
20776;SDS011;10548;47.504;8.248;2022-08-19T06:15:02;13.13;;;11.83;;
20776;SDS011;10548;47.504;8.248;2022-08-19T06:17:33;13.10;;;11.70;;
20776;SDS011;10548;47.504;8.248;2022-08-19T06:20:08;14.10;;;12.80;;
20776;SDS011;10548;47.504;8.248;2022-08-19T06:22:43;16.40;;;14.70;;
20776;SDS011;10548;47.504;8.248;2022-08-19T06:25:13;13.80;;;12.27;;
20776;SDS011;10548;47.504;8.248;2022-08-19T06:27:41;13.03;;;11.73;;
20776;SDS011;10548;47.504;8.248;2022-08-19T06:30:28;23.43;;;13.23;;
20776;SDS011;10548;47.504;8.248;2022-08-19T06:32:55;17.20;;;14.20;;
20776;SDS011;10548;47.504;8.248;2022-08-19T06:35:23;15.70;;;13.80;;
20776;SDS011;10548;47.504;8.248;2022-08-19T06:37:50;13.70;;;12.40;;
20776;SDS011;10548;47.504;8.248;2022-08-19T06:40:17;15.23;;;13.67;;
20776;SDS011;10548;47.504;8.248;2022-08-19T06:42:44;16.80;;;15.10;;
20776;SDS011;10548;47.504;8.248;2022-08-19T06:45:19;16.20;;;13.93;;
20776;SDS011;10548;47.504;8.248;2022-08-19T06:47:50;15.77;;;14.03;;
20776;SDS011;10548;47.504;8.248;2022-08-19T06:50:20;16.57;;;14.90;;
20776;SDS011;10548;47.504;8.248;2022-08-19T06:52:51;15.60;;;13.93;;
20776;SDS011;10548;47.504;8.248;2022-08-19T06:55:19;14.83;;;13.30;;
20776;SDS011;10548;47.504;8.248;2022-08-19T06:57:46;14.70;;;13.10;;
20776;SDS011;10548;47.504;8.248;2022-08-19T07:00:14;18.33;;;14.97;;
20776;SDS011;10548;47.504;8.248;2022-08-19T07:02:42;16.33;;;13.30;;
20776;SDS011;10548;47.504;8.248;2022-08-19T07:05:18;14.20;;;12.90;;
20776;SDS011;10548;47.504;8.248;2022-08-19T07:07:45;19.10;;;16.67;;
20776;SDS011;10548;47.504;8.248;2022-08-19T07:10:13;15.73;;;12.97;;
20776;SDS011;10548;47.504;8.248;2022-08-19T07:12:40;14.83;;;13.43;;
20776;SDS011;10548;47.504;8.248;2022-08-19T07:15:07;15.50;;;13.93;;
20776;SDS011;10548;47.504;8.248;2022-08-19T07:17:37;15.30;;;12.67;;
20776;SDS011;10548;47.504;8.248;2022-08-19T07:20:07;14.23;;;12.73;;
20776;SDS011;10548;47.504;8.248;2022-08-19T07:22:37;13.63;;;12.23;;
20776;SDS011;10548;47.504;8.248;2022-08-19T07:25:06;16.70;;;14.80;;
20776;SDS011;10548;47.504;8.248;2022-08-19T07:27:34;18.53;;;14.80;;
20776;SDS011;10548;47.504;8.248;2022-08-19T07:30:05;14.97;;;13.47;;
20776;SDS011;10548;47.504;8.248;2022-08-19T07:32:37;16.57;;;14.83;;
20776;SDS011;10548;47.504;8.248;2022-08-19T07:35:05;15.07;;;13.57;;
20776;SDS011;10548;47.504;8.248;2022-08-19T07:37:33;17.93;;;13.77;;
20776;SDS011;10548;47.504;8.248;2022-08-19T07:40:02;15.23;;;13.63;;
20776;SDS011;10548;47.504;8.248;2022-08-19T07:42:31;17.60;;;15.80;;
20776;SDS011;10548;47.504;8.248;2022-08-19T07:44:58;17.60;;;15.30;;
20776;SDS011;10548;47.504;8.248;2022-08-19T07:47:25;17.07;;;15.27;;
20776;SDS011;10548;47.504;8.248;2022-08-19T07:50:15;16.80;;;15.03;;
20776;SDS011;10548;47.504;8.248;2022-08-19T07:52:44;17.47;;;14.97;;
20776;SDS011;10548;47.504;8.248;2022-08-19T07:55:14;16.43;;;14.43;;
20776;SDS011;10548;47.504;8.248;2022-08-19T07:58:04;18.83;;;14.77;;
20776;SDS011;10548;47.504;8.248;2022-08-19T08:00:31;19.10;;;16.97;;
20776;SDS011;10548;47.504;8.248;2022-08-19T08:02:58;18.40;;;16.50;;
20776;SDS011;10548;47.504;8.248;2022-08-19T08:05:26;19.87;;;17.77;;
20776;SDS011;10548;47.504;8.248;2022-08-19T08:08:11;22.00;;;16.77;;
20776;SDS011;10548;47.504;8.248;2022-08-19T08:10:58;18.80;;;16.70;;
20776;SDS011;10548;47.504;8.248;2022-08-19T08:13:26;20.63;;;18.43;;
20776;SDS011;10548;47.504;8.248;2022-08-19T08:15:54;18.63;;;16.63;;
20776;SDS011;10548;47.504;8.248;2022-08-19T08:18:25;20.40;;;18.20;;
20776;SDS011;10548;47.504;8.248;2022-08-19T08:20:53;20.77;;;18.37;;
20776;SDS011;10548;47.504;8.248;2022-08-19T08:23:21;19.80;;;17.60;;
20776;SDS011;10548;47.504;8.248;2022-08-19T08:25:50;23.37;;;18.60;;
20776;SDS011;10548;47.504;8.248;2022-08-19T08:28:18;23.47;;;19.33;;
20776;SDS011;10548;47.504;8.248;2022-08-19T08:30:46;22.60;;;20.17;;
20776;SDS011;10548;47.504;8.248;2022-08-19T08:33:19;22.73;;;20.27;;
20776;SDS011;10548;47.504;8.248;2022-08-19T08:36:01;25.93;;;20.30;;
20776;SDS011;10548;47.504;8.248;2022-08-19T08:38:31;25.10;;;22.03;;
20776;SDS011;10548;47.504;8.248;2022-08-19T08:41:10;24.47;;;21.93;;
20776;SDS011;10548;47.504;8.248;2022-08-19T08:44:00;26.60;;;22.23;;
20776;SDS011;10548;47.504;8.248;2022-08-19T08:46:34;27.53;;;23.13;;
20776;SDS011;10548;47.504;8.248;2022-08-19T08:49:20;28.03;;;23.70;;
20776;SDS011;10548;47.504;8.248;2022-08-19T08:52:15;30.93;;;25.07;;
20776;SDS011;10548;47.504;8.248;2022-08-19T08:54:48;27.30;;;24.13;;
20776;SDS011;10548;47.504;8.248;2022-08-19T08:57:23;29.87;;;24.77;;
20776;SDS011;10548;47.504;8.248;2022-08-19T09:00:08;31.47;;;25.20;;
20776;SDS011;10548;47.504;8.248;2022-08-19T09:02:42;31.83;;;26.47;;
20776;SDS011;10548;47.504;8.248;2022-08-19T09:05:16;31.37;;;25.67;;
20776;SDS011;10548;47.504;8.248;2022-08-19T09:08:07;30.23;;;25.43;;
20776;SDS011;10548;47.504;8.248;2022-08-19T09:10:44;35.10;;;26.60;;
20776;SDS011;10548;47.504;8.248;2022-08-19T09:13:35;30.97;;;26.57;;
20776;SDS011;10548;47.504;8.248;2022-08-19T09:16:21;34.00;;;26.10;;
20776;SDS011;10548;47.504;8.248;2022-08-19T09:18:56;32.77;;;25.17;;
20776;SDS011;10548;47.504;8.248;2022-08-19T09:21:31;32.03;;;27.87;;
20776;SDS011;10548;47.504;8.248;2022-08-19T09:24:01;35.43;;;29.63;;
20776;SDS011;10548;47.504;8.248;2022-08-19T09:26:30;30.07;;;25.90;;
20776;SDS011;10548;47.504;8.248;2022-08-19T09:29:18;36.80;;;28.57;;
20776;SDS011;10548;47.504;8.248;2022-08-19T09:31:48;33.70;;;27.60;;
20776;SDS011;10548;47.504;8.248;2022-08-19T09:34:16;34.43;;;28.77;;
20776;SDS011;10548;47.504;8.248;2022-08-19T09:36:47;35.00;;;28.47;;
20776;SDS011;10548;47.504;8.248;2022-08-19T09:39:21;37.63;;;28.57;;
20776;SDS011;10548;47.504;8.248;2022-08-19T09:41:49;35.80;;;29.03;;
20776;SDS011;10548;47.504;8.248;2022-08-19T09:44:17;35.13;;;28.93;;
20776;SDS011;10548;47.504;8.248;2022-08-19T09:46:44;38.47;;;31.27;;
20776;SDS011;10548;47.504;8.248;2022-08-19T09:49:14;36.23;;;29.10;;
20776;SDS011;10548;47.504;8.248;2022-08-19T09:51:44;32.87;;;28.10;;
20776;SDS011;10548;47.504;8.248;2022-08-19T09:54:16;34.93;;;29.77;;
20776;SDS011;10548;47.504;8.248;2022-08-19T09:56:49;41.83;;;30.77;;
20776;SDS011;10548;47.504;8.248;2022-08-19T09:59:16;40.23;;;32.43;;
20776;SDS011;10548;47.504;8.248;2022-08-19T10:01:44;39.57;;;28.43;;
20776;SDS011;10548;47.504;8.248;2022-08-19T10:04:11;41.97;;;29.80;;
20776;SDS011;10548;47.504;8.248;2022-08-19T10:06:46;32.43;;;27.63;;
20776;SDS011;10548;47.504;8.248;2022-08-19T10:09:19;38.83;;;31.00;;
20776;SDS011;10548;47.504;8.248;2022-08-19T10:11:59;43.13;;;32.00;;
20776;SDS011;10548;47.504;8.248;2022-08-19T10:14:28;40.43;;;31.90;;
20776;SDS011;10548;47.504;8.248;2022-08-19T10:16:55;37.73;;;30.30;;
20776;SDS011;10548;47.504;8.248;2022-08-19T10:19:24;36.77;;;31.70;;
20776;SDS011;10548;47.504;8.248;2022-08-19T10:21:55;34.10;;;28.30;;
20776;SDS011;10548;47.504;8.248;2022-08-19T10:24:26;36.53;;;30.67;;
20776;SDS011;10548;47.504;8.248;2022-08-19T10:26:54;41.63;;;32.33;;
20776;SDS011;10548;47.504;8.248;2022-08-19T10:29:25;38.67;;;32.27;;
20776;SDS011;10548;47.504;8.248;2022-08-19T10:32:02;37.37;;;31.30;;
20776;SDS011;10548;47.504;8.248;2022-08-19T10:34:35;43.23;;;34.07;;
20776;SDS011;10548;47.504;8.248;2022-08-19T10:37:14;38.30;;;30.10;;
20776;SDS011;10548;47.504;8.248;2022-08-19T10:39:54;36.77;;;32.27;;
20776;SDS011;10548;47.504;8.248;2022-08-19T10:42:21;41.13;;;33.33;;
20776;SDS011;10548;47.504;8.248;2022-08-19T10:44:48;40.83;;;33.30;;
20776;SDS011;10548;47.504;8.248;2022-08-19T10:47:17;35.73;;;31.20;;
20776;SDS011;10548;47.504;8.248;2022-08-19T10:49:54;38.67;;;32.40;;
20776;SDS011;10548;47.504;8.248;2022-08-19T10:52:41;37.33;;;31.50;;
20776;SDS011;10548;47.504;8.248;2022-08-19T10:55:17;42.70;;;34.60;;
20776;SDS011;10548;47.504;8.248;2022-08-19T10:58:09;40.73;;;34.53;;
20776;SDS011;10548;47.504;8.248;2022-08-19T11:00:37;40.60;;;33.20;;
20776;SDS011;10548;47.504;8.248;2022-08-19T11:03:05;42.63;;;31.03;;
20776;SDS011;10548;47.504;8.248;2022-08-19T11:05:35;44.63;;;35.87;;
20776;SDS011;10548;47.504;8.248;2022-08-19T11:08:05;43.37;;;34.23;;
20776;SDS011;10548;47.504;8.248;2022-08-19T11:10:49;44.30;;;32.43;;
20776;SDS011;10548;47.504;8.248;2022-08-19T11:13:20;36.87;;;30.83;;
20776;SDS011;10548;47.504;8.248;2022-08-19T11:15:55;39.30;;;32.13;;
20776;SDS011;10548;47.504;8.248;2022-08-19T11:18:39;38.57;;;29.57;;
20776;SDS011;10548;47.504;8.248;2022-08-19T11:21:14;34.47;;;30.57;;
20776;SDS011;10548;47.504;8.248;2022-08-19T11:23:50;39.30;;;32.07;;
20776;SDS011;10548;47.504;8.248;2022-08-19T11:26:19;36.57;;;30.60;;
20776;SDS011;10548;47.504;8.248;2022-08-19T11:28:47;43.40;;;33.43;;
20776;SDS011;10548;47.504;8.248;2022-08-19T11:31:18;35.17;;;31.07;;
20776;SDS011;10548;47.504;8.248;2022-08-19T11:33:49;40.80;;;31.43;;
20776;SDS011;10548;47.504;8.248;2022-08-19T11:36:21;35.20;;;29.43;;
20776;SDS011;10548;47.504;8.248;2022-08-19T11:38:49;38.77;;;29.60;;
20776;SDS011;10548;47.504;8.248;2022-08-19T11:41:17;36.40;;;30.60;;
20776;SDS011;10548;47.504;8.248;2022-08-19T11:43:45;36.33;;;27.97;;
20776;SDS011;10548;47.504;8.248;2022-08-19T11:46:13;39.70;;;27.27;;
20776;SDS011;10548;47.504;8.248;2022-08-19T11:48:41;30.57;;;26.13;;
20776;SDS011;10548;47.504;8.248;2022-08-19T11:58:04;34.67;;;27.37;;
20776;SDS011;10548;47.504;8.248;2022-08-19T12:00:51;35.40;;;28.07;;
20776;SDS011;10548;47.504;8.248;2022-08-19T12:03:32;33.80;;;28.67;;
20776;SDS011;10548;47.504;8.248;2022-08-19T12:06:04;31.77;;;26.70;;
20776;SDS011;10548;47.504;8.248;2022-08-19T12:08:32;41.37;;;30.20;;
20776;SDS011;10548;47.504;8.248;2022-08-19T12:11:00;31.10;;;26.53;;
20776;SDS011;10548;47.504;8.248;2022-08-19T12:13:28;30.60;;;26.30;;
20776;SDS011;10548;47.504;8.248;2022-08-19T12:15:56;35.27;;;30.27;;
20776;SDS011;10548;47.504;8.248;2022-08-19T12:18:24;32.53;;;27.27;;
20776;SDS011;10548;47.504;8.248;2022-08-19T12:20:52;32.20;;;28.80;;
20776;SDS011;10548;47.504;8.248;2022-08-19T12:23:23;31.40;;;26.80;;
20776;SDS011;10548;47.504;8.248;2022-08-19T12:25:50;32.20;;;27.70;;
20776;SDS011;10548;47.504;8.248;2022-08-19T12:28:19;32.37;;;28.40;;
20776;SDS011;10548;47.504;8.248;2022-08-19T12:30:47;35.90;;;28.40;;
20776;SDS011;10548;47.504;8.248;2022-08-19T12:33:16;35.03;;;30.63;;
20776;SDS011;10548;47.504;8.248;2022-08-19T12:35:45;30.87;;;27.53;;
20776;SDS011;10548;47.504;8.248;2022-08-19T12:38:13;33.30;;;27.87;;
20776;SDS011;10548;47.504;8.248;2022-08-19T12:40:40;30.33;;;27.03;;
20776;SDS011;10548;47.504;8.248;2022-08-19T12:43:11;33.17;;;29.57;;
20776;SDS011;10548;47.504;8.248;2022-08-19T12:45:38;35.13;;;29.33;;
20776;SDS011;10548;47.504;8.248;2022-08-19T12:48:07;35.07;;;28.50;;
20776;SDS011;10548;47.504;8.248;2022-08-19T12:50:55;32.43;;;28.20;;
20776;SDS011;10548;47.504;8.248;2022-08-19T12:53:23;32.13;;;28.53;;
20776;SDS011;10548;47.504;8.248;2022-08-19T12:55:56;36.93;;;30.43;;
20776;SDS011;10548;47.504;8.248;2022-08-19T12:58:26;33.13;;;27.83;;
20776;SDS011;10548;47.504;8.248;2022-08-19T13:00:54;32.17;;;25.80;;
20776;SDS011;10548;47.504;8.248;2022-08-19T13:03:21;32.33;;;27.33;;
20776;SDS011;10548;47.504;8.248;2022-08-19T13:05:55;31.40;;;27.10;;
20776;SDS011;10548;47.504;8.248;2022-08-19T13:08:23;32.13;;;27.90;;
20776;SDS011;10548;47.504;8.248;2022-08-19T13:10:50;33.77;;;27.53;;
20776;SDS011;10548;47.504;8.248;2022-08-19T13:13:17;35.30;;;26.03;;
20776;SDS011;10548;47.504;8.248;2022-08-19T13:15:44;32.97;;;26.67;;
20776;SDS011;10548;47.504;8.248;2022-08-19T13:18:11;35.37;;;28.17;;
20776;SDS011;10548;47.504;8.248;2022-08-19T13:20:39;31.43;;;26.77;;
20776;SDS011;10548;47.504;8.248;2022-08-19T13:23:07;30.83;;;25.60;;
20776;SDS011;10548;47.504;8.248;2022-08-19T13:25:35;29.90;;;26.67;;
20776;SDS011;10548;47.504;8.248;2022-08-19T13:28:03;30.43;;;26.97;;
20776;SDS011;10548;47.504;8.248;2022-08-19T13:30:32;30.17;;;26.87;;
20776;SDS011;10548;47.504;8.248;2022-08-19T13:33:18;30.30;;;25.30;;
20776;SDS011;10548;47.504;8.248;2022-08-19T13:35:56;33.03;;;26.53;;
20776;SDS011;10548;47.504;8.248;2022-08-19T13:38:24;31.50;;;25.90;;
20776;SDS011;10548;47.504;8.248;2022-08-19T13:40:52;27.63;;;23.87;;
20776;SDS011;10548;47.504;8.248;2022-08-19T13:43:22;30.43;;;23.83;;
20776;SDS011;10548;47.504;8.248;2022-08-19T13:45:52;26.13;;;22.73;;
20776;SDS011;10548;47.504;8.248;2022-08-19T13:48:24;29.30;;;23.00;;
20776;SDS011;10548;47.504;8.248;2022-08-19T13:50:53;26.17;;;23.00;;
20776;SDS011;10548;47.504;8.248;2022-08-19T13:53:20;28.03;;;23.57;;
20776;SDS011;10548;47.504;8.248;2022-08-19T13:55:47;30.73;;;22.73;;
20776;SDS011;10548;47.504;8.248;2022-08-19T13:58:16;27.23;;;23.70;;
20776;SDS011;10548;47.504;8.248;2022-08-19T14:00:44;27.33;;;24.43;;
20776;SDS011;10548;47.504;8.248;2022-08-19T14:03:12;28.13;;;24.07;;
20776;SDS011;10548;47.504;8.248;2022-08-19T14:05:40;27.13;;;23.60;;
20776;SDS011;10548;47.504;8.248;2022-08-19T14:08:07;28.00;;;23.43;;
20776;SDS011;10548;47.504;8.248;2022-08-19T14:10:35;31.87;;;23.40;;
20776;SDS011;10548;47.504;8.248;2022-08-19T14:13:03;28.57;;;23.93;;
20776;SDS011;10548;47.504;8.248;2022-08-19T14:15:30;28.73;;;21.70;;
20776;SDS011;10548;47.504;8.248;2022-08-19T14:17:58;25.23;;;21.97;;
20776;SDS011;10548;47.504;8.248;2022-08-19T14:20:25;28.13;;;21.60;;
20776;SDS011;10548;47.504;8.248;2022-08-19T14:22:53;27.83;;;22.40;;
20776;SDS011;10548;47.504;8.248;2022-08-19T14:25:22;24.13;;;20.03;;
20776;SDS011;10548;47.504;8.248;2022-08-19T14:27:50;22.67;;;20.20;;
20776;SDS011;10548;47.504;8.248;2022-08-19T14:30:19;32.23;;;20.63;;
20776;SDS011;10548;47.504;8.248;2022-08-19T14:32:54;26.07;;;20.97;;
20776;SDS011;10548;47.504;8.248;2022-08-19T14:35:22;25.07;;;19.70;;
20776;SDS011;10548;47.504;8.248;2022-08-19T14:37:50;23.07;;;19.47;;
20776;SDS011;10548;47.504;8.248;2022-08-19T14:40:23;23.80;;;21.30;;
20776;SDS011;10548;47.504;8.248;2022-08-19T14:42:55;19.00;;;16.63;;
20776;SDS011;10548;47.504;8.248;2022-08-19T14:45:28;23.47;;;17.40;;
20776;SDS011;10548;47.504;8.248;2022-08-19T14:47:57;19.27;;;15.33;;
20776;SDS011;10548;47.504;8.248;2022-08-19T14:50:26;18.33;;;14.90;;